createdAt,value
2023-04-22T00:01:43.042Z,13.51
2023-04-22T00:04:50.403Z,13.07
2023-04-22T00:07:54.142Z,13.04
2023-04-22T00:10:57.782Z,13.92
2023-04-22T00:14:01.456Z,15.01
2023-04-22T00:17:05.248Z,14.99
2023-04-22T00:20:11.362Z,13.37
2023-04-22T00:23:15.350Z,13.83
2023-04-22T00:26:18.952Z,15.40
2023-04-22T00:29:23.406Z,15.93
2023-04-22T00:32:27.190Z,14.71
2023-04-22T00:35:30.202Z,15.23
2023-04-22T00:38:33.315Z,15.66
2023-04-22T00:41:36.894Z,15.58
2023-04-22T00:44:41.971Z,15.16
2023-04-22T00:47:49.025Z,15.43
2023-04-22T00:50:53.499Z,15.48
2023-04-22T00:53:56.808Z,14.45
2023-04-22T00:57:00.596Z,15.09
2023-04-22T01:00:06.347Z,15.59
2023-04-22T01:03:10.687Z,14.86
2023-04-22T01:06:14.663Z,15.50
2023-04-22T01:09:19.354Z,14.43
2023-04-22T01:12:22.605Z,14.70
2023-04-22T01:15:26.455Z,15.20
2023-04-22T01:18:30.098Z,15.37
2023-04-22T01:21:35.673Z,15.94
2023-04-22T01:24:38.941Z,15.35
2023-04-22T01:27:42.073Z,14.27
2023-04-22T01:30:46.237Z,15.06
2023-04-22T01:33:49.319Z,16.15
2023-04-22T01:36:52.749Z,16.53
2023-04-22T01:39:56.354Z,16.77
2023-04-22T01:43:03.627Z,16.54
2023-04-22T01:46:07.380Z,15.50
2023-04-22T01:49:10.844Z,15.40
2023-04-22T01:52:14.090Z,15.86
2023-04-22T01:55:17.450Z,15.43
2023-04-22T01:58:20.400Z,14.68
2023-04-22T02:01:24.017Z,14.51
2023-04-22T02:04:29.424Z,13.92
2023-04-22T02:07:32.713Z,13.98
2023-04-22T02:10:35.666Z,13.81
2023-04-22T02:13:41.710Z,13.49
2023-04-22T02:16:44.864Z,13.49
2023-04-22T02:19:50.607Z,14.20
2023-04-22T02:22:53.577Z,14.26
2023-04-22T02:25:56.844Z,15.22
2023-04-22T02:28:59.888Z,14.37
2023-04-22T02:32:02.992Z,14.34
2023-04-22T02:35:06.401Z,14.71
2023-04-22T02:38:11.621Z,14.06
2023-04-22T02:41:14.654Z,14.27
2023-04-22T02:44:18.437Z,13.47
2023-04-22T02:47:22.011Z,13.70
2023-04-22T02:50:25.140Z,13.48
2023-04-22T02:53:28.288Z,13.09
2023-04-22T02:56:32.744Z,12.81
2023-04-22T02:59:37.964Z,12.11
2023-04-22T03:02:41.785Z,11.83
2023-04-22T03:05:48.492Z,12.35
2023-04-22T03:08:51.779Z,13.06
2023-04-22T03:11:54.782Z,12.21
2023-04-22T03:14:57.856Z,12.47
2023-04-22T03:18:04.875Z,12.67
2023-04-22T03:21:09.364Z,12.19
2023-04-22T03:24:12.600Z,11.77
2023-04-22T03:27:21.661Z,11.20
2023-04-22T03:30:25.022Z,10.86
2023-04-22T03:33:28.767Z,10.24
2023-04-22T03:36:37.508Z,10.75
2023-04-22T03:39:41.806Z,10.53
2023-04-22T03:42:46.103Z,10.59
2023-04-22T03:45:52.190Z,10.57
2023-04-22T03:48:59.810Z,10.23
2023-04-22T03:52:05.955Z,10.03
2023-04-22T03:55:11.219Z,10.07
2023-04-22T03:58:15.659Z,10.70
2023-04-22T04:01:19.656Z,10.21
2023-04-22T04:04:30.295Z,9.69
2023-04-22T04:07:36.963Z,9.40
2023-04-22T04:10:42.173Z,8.95
2023-04-22T04:13:45.963Z,8.89
2023-04-22T04:17:15.861Z,9.38
2023-04-22T04:20:20.531Z,9.49
2023-04-22T04:23:24.236Z,9.89
2023-04-22T04:26:28.998Z,10.15
2023-04-22T04:29:42.982Z,9.76
2023-04-22T04:32:55.810Z,9.63
2023-04-22T04:36:01.619Z,9.71
2023-04-22T04:39:10.267Z,9.59
2023-04-22T04:42:15.290Z,9.52
2023-04-22T04:45:28.272Z,9.31
2023-04-22T04:48:37.034Z,9.18
2023-04-22T04:51:43.985Z,8.91
2023-04-22T04:54:48.075Z,8.76
2023-04-22T04:57:51.959Z,9.25
2023-04-22T05:00:56.376Z,9.54
2023-04-22T05:04:00.712Z,10.08
2023-04-22T05:07:05.052Z,10.53
2023-04-22T05:10:10.922Z,10.75
2023-04-22T05:13:15.251Z,10.57
2023-04-22T05:16:21.970Z,10.70
2023-04-22T05:19:26.629Z,10.63
2023-04-22T05:22:32.103Z,10.44
2023-04-22T05:25:36.534Z,10.71
2023-04-22T05:28:44.995Z,10.54
2023-04-22T05:31:48.658Z,10.45
2023-04-22T05:34:52.565Z,10.17
2023-04-22T05:37:56.860Z,10.18
2023-04-22T05:41:00.471Z,10.40
2023-04-22T05:44:05.321Z,10.03
2023-04-22T05:47:09.020Z,9.98
2023-04-22T05:50:13.326Z,10.29
2023-04-22T05:53:27.841Z,10.70
2023-04-22T05:56:33.043Z,10.90
2023-04-22T05:59:36.404Z,10.94
2023-04-22T06:02:40.886Z,11.25
2023-04-22T06:05:44.901Z,11.44
2023-04-22T06:08:48.994Z,11.21
2023-04-22T06:11:52.651Z,10.79
2023-04-22T06:14:56.635Z,10.81
2023-04-22T06:18:00.423Z,10.66
2023-04-22T06:21:04.744Z,10.92
2023-04-22T06:24:09.576Z,10.80
2023-04-22T06:27:13.396Z,9.84
2023-04-22T06:30:17.214Z,9.60
2023-04-22T06:33:22.037Z,9.78
2023-04-22T06:36:30.460Z,10.30
2023-04-22T06:39:38.181Z,10.31
2023-04-22T06:43:04.924Z,10.46
2023-04-22T06:46:15.264Z,10.10
2023-04-22T06:49:45.494Z,9.93
2023-04-22T06:52:59.020Z,9.75
2023-04-22T06:56:02.454Z,10.24
2023-04-22T06:59:08.557Z,10.33
2023-04-22T07:02:12.644Z,10.25
2023-04-22T07:05:18.131Z,10.22
2023-04-22T07:08:21.976Z,10.39
2023-04-22T07:11:27.503Z,10.57
2023-04-22T07:14:38.591Z,10.58
2023-04-22T07:17:43.515Z,10.44
2023-04-22T07:20:47.228Z,10.58
2023-04-22T07:23:50.942Z,10.69
2023-04-22T07:26:54.595Z,10.73
2023-04-22T07:29:58.602Z,11.27
2023-04-22T07:33:02.663Z,11.27
2023-04-22T07:36:07.496Z,11.02
2023-04-22T07:39:11.252Z,10.82
2023-04-22T07:42:15.320Z,10.99
2023-04-22T07:45:18.820Z,11.47
2023-04-22T07:48:23.584Z,11.28
2023-04-22T07:51:27.221Z,11.20
2023-04-22T07:54:31.170Z,11.27
2023-04-22T07:57:39.097Z,11.09
2023-04-22T08:00:43.229Z,10.59
2023-04-22T08:03:47.080Z,10.32
2023-04-22T08:06:51.274Z,10.19
2023-04-22T08:09:57.122Z,10.39
2023-04-22T08:13:01.037Z,10.70
2023-04-22T08:16:04.844Z,10.80
2023-04-22T08:19:08.776Z,10.87
2023-04-22T08:22:14.112Z,10.54
2023-04-22T08:25:18.297Z,10.30
2023-04-22T08:28:22.001Z,9.89
2023-04-22T08:31:26.123Z,9.67
2023-04-22T08:34:29.773Z,9.15
2023-04-22T08:37:36.545Z,8.96
2023-04-22T08:40:43.489Z,8.75
2023-04-22T08:43:48.463Z,8.65
2023-04-22T08:46:52.684Z,8.52
2023-04-22T08:49:57.440Z,8.40
2023-04-22T08:53:01.135Z,8.26
2023-04-22T08:56:06.665Z,8.34
2023-04-22T08:59:14.192Z,8.30
2023-04-22T09:02:22.306Z,8.12
2023-04-22T09:05:28.039Z,7.77
2023-04-22T09:08:35.564Z,7.49
2023-04-22T09:11:39.732Z,7.11
2023-04-22T09:14:43.742Z,6.94
2023-04-22T09:17:47.440Z,6.92
2023-04-22T09:20:56.738Z,7.02
2023-04-22T09:24:03.479Z,7.46
2023-04-22T09:27:06.719Z,7.70
2023-04-22T09:30:11.025Z,7.86
2023-04-22T09:33:15.654Z,7.89
2023-04-22T09:36:28.783Z,8.08
2023-04-22T09:39:32.742Z,7.42
2023-04-22T09:42:52.849Z,7.18
2023-04-22T09:46:07.919Z,7.27
2023-04-22T09:49:11.914Z,7.38
2023-04-22T09:52:29.036Z,7.32
2023-04-22T09:55:34.600Z,7.22
2023-04-22T09:58:41.171Z,7.26
2023-04-22T10:01:44.713Z,7.30
2023-04-22T10:04:48.651Z,7.29
2023-04-22T10:07:54.417Z,7.33
2023-04-22T10:10:58.208Z,7.33
2023-04-22T10:14:05.339Z,7.26
2023-04-22T10:17:10.410Z,7.08
2023-04-22T10:20:17.485Z,6.95
2023-04-22T10:23:22.433Z,6.69
2023-04-22T10:26:52.008Z,6.65
2023-04-22T10:29:58.204Z,6.59
2023-04-22T10:33:29.327Z,6.47
2023-04-22T10:36:34.555Z,6.42
2023-04-22T10:39:39.844Z,6.27
2023-04-22T10:42:50.331Z,6.03
2023-04-22T10:45:53.317Z,5.89
2023-04-22T10:49:21.870Z,5.73
2023-04-22T10:52:33.192Z,5.56
2023-04-22T10:55:53.965Z,5.52
2023-04-22T10:58:57.716Z,5.39
2023-04-22T11:02:07.414Z,5.31
2023-04-22T11:05:24.587Z,5.25
2023-04-22T11:08:29.471Z,5.11
2023-04-22T11:11:33.189Z,5.07
2023-04-22T11:14:37.525Z,5.01
2023-04-22T11:17:44.543Z,4.95
2023-04-22T11:20:49.803Z,4.82
2023-04-22T11:23:53.998Z,4.67
2023-04-22T11:27:00.344Z,4.43
2023-04-22T11:30:18.361Z,4.36
2023-04-22T11:33:22.206Z,4.22
2023-04-22T11:36:26.563Z,4.07
2023-04-22T11:39:43.639Z,4.09
2023-04-22T11:42:54.965Z,4.01
2023-04-22T11:45:58.319Z,3.89
2023-04-22T11:49:17.689Z,3.88
2023-04-22T11:52:21.337Z,3.90
2023-04-22T11:55:33.648Z,3.86
2023-04-22T11:58:41.211Z,3.80
2023-04-22T12:01:45.266Z,3.72
2023-04-22T12:04:48.900Z,3.50
2023-04-22T12:07:52.405Z,3.30
2023-04-22T12:10:57.304Z,3.21
2023-04-22T12:14:07.606Z,3.16
2023-04-22T12:17:12.618Z,3.19
2023-04-22T12:20:16.683Z,3.09
2023-04-22T12:23:22.116Z,2.99
2023-04-22T12:26:30.330Z,2.92
2023-04-22T12:29:34.772Z,2.81
2023-04-22T12:32:38.690Z,2.71
2023-04-22T12:35:42.369Z,2.63
2023-04-22T12:38:46.073Z,2.64
2023-04-22T12:41:51.601Z,2.62
2023-04-22T12:44:55.534Z,2.61
2023-04-22T12:47:58.538Z,2.60
2023-04-22T12:51:02.039Z,2.55
2023-04-22T12:54:05.231Z,2.53
2023-04-22T12:57:09.219Z,2.45
2023-04-22T13:00:15.455Z,2.36
2023-04-22T13:03:18.568Z,2.29
2023-04-22T13:06:22.345Z,2.17
2023-04-22T13:09:26.880Z,2.16
2023-04-22T13:12:30.891Z,2.14
2023-04-22T13:15:34.717Z,2.07
2023-04-22T13:18:38.278Z,2.04
2023-04-22T13:21:42.198Z,1.99
2023-04-22T13:24:46.802Z,2.01
2023-04-22T13:27:50.168Z,2.00
2023-04-22T13:30:53.622Z,2.04
2023-04-22T13:33:56.521Z,2.08
2023-04-22T13:37:00.178Z,2.09
2023-04-22T13:40:06.504Z,2.13
2023-04-22T13:43:10.581Z,2.16
2023-04-22T13:46:13.609Z,2.19
2023-04-22T13:49:19.399Z,2.17
2023-04-22T13:52:22.667Z,2.01
2023-04-22T13:55:27.726Z,1.92
2023-04-22T13:58:31.489Z,1.92
2023-04-22T14:01:35.506Z,1.80
2023-04-22T14:04:38.497Z,1.75
2023-04-22T14:07:41.691Z,1.61
2023-04-22T14:10:45.763Z,1.51
2023-04-22T14:13:48.822Z,1.26
2023-04-22T14:16:52.742Z,1.11
2023-04-22T14:19:56.616Z,0.89
2023-04-22T14:23:02.083Z,0.84
2023-04-22T14:26:06.065Z,0.92
2023-04-22T14:29:10.187Z,0.89
2023-04-22T14:32:18.135Z,0.73
2023-04-22T14:35:22.183Z,0.61
2023-04-22T14:38:25.579Z,0.58
2023-04-22T14:41:28.744Z,0.55
2023-04-22T14:44:35.686Z,0.51
2023-04-22T14:47:38.687Z,0.50
2023-04-22T14:50:41.782Z,0.40
2023-04-22T14:53:45.558Z,0.33
2023-04-22T14:56:49.116Z,0.26
2023-04-22T14:59:53.108Z,0.21
2023-04-22T15:02:56.761Z,0.18
2023-04-22T15:06:00.558Z,0.21
2023-04-22T15:09:03.621Z,0.15
2023-04-22T15:12:06.702Z,0.05
2023-04-22T15:15:11.286Z,-0.03
2023-04-22T15:18:14.179Z,-0.01
2023-04-22T15:21:17.385Z,-0.06
2023-04-22T15:24:21.039Z,-0.11
2023-04-22T15:27:25.549Z,-0.12
2023-04-22T15:30:56.003Z,-0.06
2023-04-22T15:33:59.805Z,-0.19
2023-04-22T15:37:27.777Z,-0.24
2023-04-22T15:40:31.125Z,-0.17
2023-04-22T15:43:34.831Z,-0.27
2023-04-22T15:46:38.877Z,-0.44
2023-04-22T15:49:42.020Z,-0.38
2023-04-22T15:52:46.324Z,-0.40
2023-04-22T15:55:49.861Z,-0.43
2023-04-22T15:58:57.269Z,-0.40
2023-04-22T16:02:03.021Z,-0.35
2023-04-22T16:05:07.155Z,-0.33
2023-04-22T16:08:11.343Z,-0.28
2023-04-22T16:11:16.552Z,-0.26
2023-04-22T16:14:20.614Z,-0.33
2023-04-22T16:17:23.884Z,-0.35
2023-04-22T16:20:26.917Z,-0.33
2023-04-22T16:23:29.959Z,-0.32
2023-04-22T16:26:32.897Z,-0.35
2023-04-22T16:29:36.460Z,-0.42
2023-04-22T16:32:39.878Z,-0.57
2023-04-22T16:35:43.612Z,-0.68
2023-04-22T16:38:46.969Z,-0.87
2023-04-22T16:41:50.588Z,-1.05
2023-04-22T16:44:54.982Z,-1.13
2023-04-22T16:48:00.987Z,-1.20
2023-04-22T16:51:07.033Z,-1.24
2023-04-22T16:54:09.947Z,-1.31
2023-04-22T16:57:13.337Z,-1.39
2023-04-22T17:00:16.539Z,-1.28
2023-04-22T17:03:20.111Z,-1.08
2023-04-22T17:06:24.835Z,-1.06
2023-04-22T17:09:28.821Z,-1.20
2023-04-22T17:12:35.453Z,-1.37
2023-04-22T17:15:39.624Z,-1.42
2023-04-22T17:18:43.225Z,-1.50
2023-04-22T17:21:46.890Z,-1.59
2023-04-22T17:24:50.371Z,-1.69
2023-04-22T17:27:53.690Z,-1.76
2023-04-22T17:30:56.611Z,-1.79
2023-04-22T17:34:06.691Z,-1.74
2023-04-22T17:37:09.660Z,-1.66
2023-04-22T17:40:13.016Z,-1.61
2023-04-22T17:43:15.941Z,-1.55
2023-04-22T17:46:18.901Z,-1.54
2023-04-22T17:49:32.818Z,-1.50
2023-04-22T17:52:38.055Z,-1.53
2023-04-22T17:55:41.518Z,-1.62
2023-04-22T17:58:44.492Z,-1.75
2023-04-22T18:01:47.776Z,-1.86
2023-04-22T18:04:51.495Z,-2.04
2023-04-22T18:08:01.626Z,-2.26
2023-04-22T18:11:05.705Z,-2.34
2023-04-22T18:14:08.766Z,-2.42
2023-04-22T18:17:11.670Z,-2.45
2023-04-22T18:20:18.587Z,-2.53
2023-04-22T18:23:22.701Z,-2.60
2023-04-22T18:26:26.207Z,-2.57
2023-04-22T18:29:30.004Z,-2.61
2023-04-22T18:32:35.135Z,-2.50
2023-04-22T18:35:38.410Z,-2.47
2023-04-22T18:38:42.515Z,-2.46
2023-04-22T18:41:45.577Z,-2.37
2023-04-22T18:44:48.563Z,-2.34
2023-04-22T18:47:51.966Z,-2.39
2023-04-22T18:50:55.600Z,-2.49
2023-04-22T18:53:59.278Z,-2.61
2023-04-22T18:57:03.252Z,-2.76
2023-04-22T19:00:07.846Z,-2.83
2023-04-22T19:03:11.770Z,-2.77
2023-04-22T19:06:15.856Z,-2.89
2023-04-22T19:09:18.739Z,-2.94
2023-04-22T19:12:22.298Z,-2.97
2023-04-22T19:15:25.227Z,-3.08
2023-04-22T19:18:28.897Z,-3.15
2023-04-22T19:21:33.601Z,-3.24
2023-04-22T19:24:37.163Z,-3.33
2023-04-22T19:27:40.113Z,-3.46
2023-04-22T19:30:44.026Z,-3.54
2023-04-22T19:33:47.400Z,-3.52
2023-04-22T19:36:51.748Z,-3.64
2023-04-22T19:39:55.636Z,-3.71
2023-04-22T19:42:59.678Z,-3.66
2023-04-22T19:46:03.576Z,-3.69
2023-04-22T19:49:07.689Z,-3.80
2023-04-22T19:52:12.608Z,-3.89
2023-04-22T19:55:17.065Z,-3.94
2023-04-22T19:58:21.948Z,-3.95
2023-04-22T20:01:25.617Z,-3.97
2023-04-22T20:04:29.718Z,-4.00
2023-04-22T20:07:37.191Z,-3.96
2023-04-22T20:10:40.569Z,-3.95
2023-04-22T20:13:44.800Z,-4.02
2023-04-22T20:16:50.803Z,-4.05
2023-04-22T20:19:55.125Z,-4.14
2023-04-22T20:23:02.326Z,-4.17
2023-04-22T20:26:05.991Z,-4.30
2023-04-22T20:29:09.809Z,-4.30
2023-04-22T20:32:13.545Z,-4.36
2023-04-22T20:35:17.105Z,-4.39
2023-04-22T20:38:23.336Z,-4.44
2023-04-22T20:41:27.339Z,-4.51
2023-04-22T20:44:32.009Z,-4.60
2023-04-22T20:47:36.401Z,-4.64
2023-04-22T20:50:39.913Z,-4.67
2023-04-22T20:53:43.232Z,-4.65
2023-04-22T20:56:46.545Z,-4.61
2023-04-22T20:59:49.430Z,-4.53
2023-04-22T21:02:53.664Z,-4.56
2023-04-22T21:05:58.972Z,-4.69
2023-04-22T21:09:04.223Z,-4.70
2023-04-22T21:12:10.966Z,-4.75
2023-04-22T21:15:14.521Z,-4.66
2023-04-22T21:18:22.136Z,-4.58
2023-04-22T21:21:32.249Z,-4.42
2023-04-22T21:24:36.146Z,-4.37
2023-04-22T21:27:39.314Z,-4.33
2023-04-22T21:30:43.106Z,-4.31
2023-04-22T21:33:46.045Z,-4.43
2023-04-22T21:36:49.031Z,-4.45
2023-04-22T21:39:51.968Z,-4.48
2023-04-22T21:42:56.342Z,-4.48
2023-04-22T21:45:59.200Z,-4.46
2023-04-22T21:49:02.158Z,-4.48
2023-04-22T21:52:05.064Z,-4.42
2023-04-22T21:55:08.234Z,-4.37
2023-04-22T21:58:11.143Z,-4.11
2023-04-22T22:01:14.026Z,-3.83
2023-04-22T22:04:17.061Z,-3.64
2023-04-22T22:07:20.772Z,-3.50
2023-04-22T22:10:24.363Z,-3.43
2023-04-22T22:13:28.497Z,-3.37
2023-04-22T22:16:31.772Z,-3.32
2023-04-22T22:19:35.412Z,-3.27
2023-04-22T22:22:40.350Z,-3.22
2023-04-22T22:25:43.639Z,-3.32
2023-04-22T22:28:46.736Z,-3.30
2023-04-22T22:31:49.669Z,-3.34
2023-04-22T22:34:52.684Z,-3.19
2023-04-22T22:37:56.175Z,-3.23
2023-04-22T22:40:59.867Z,-3.17
2023-04-22T22:44:04.349Z,-2.92
2023-04-22T22:47:07.493Z,-2.68
2023-04-22T22:50:10.596Z,-2.63
2023-04-22T22:53:13.822Z,-2.70
2023-04-22T22:56:18.706Z,-2.46
2023-04-22T22:59:22.296Z,-1.24
2023-04-22T23:02:25.711Z,2.64
2023-04-22T23:05:29.352Z,5.45
2023-04-22T23:08:32.830Z,7.13
2023-04-22T23:11:36.418Z,7.70
2023-04-22T23:14:39.972Z,8.16
2023-04-22T23:17:43.619Z,9.10
2023-04-22T23:20:48.244Z,9.78
2023-04-22T23:23:51.327Z,10.15
2023-04-22T23:26:54.861Z,10.54
2023-04-22T23:29:58.084Z,11.32
2023-04-22T23:33:04.974Z,11.85
2023-04-22T23:36:11.172Z,12.41
2023-04-22T23:39:14.404Z,12.14
2023-04-22T23:42:20.032Z,11.80
2023-04-22T23:45:23.205Z,12.93
2023-04-22T23:48:26.860Z,13.39
2023-04-22T23:51:30.369Z,13.53
2023-04-22T23:54:34.439Z,13.94
2023-04-22T23:57:39.305Z,14.23
